Terminal Aerodrome Forecast
Issued by NWS

Home | Current Version | Previous Version | Text Only | Print | Product List | Glossary On
Versions: 1 2 3 4 5 6 7 8 9 10 11 12 13 14 15 16 17 18 19 20 21 22 23
000
FTUS43 KSGF 170200 AAB
TAFJLN
TAF AMD
KJLN 170230Z 1703/1724 12005KT P6SM SCT025
     FM170900 15005KT 6SM BR SCT025
      TEMPO 1710/1714 4SM TSRA BKN025 OVC040CB
     FM171400 20010KT P6SM SCT025 BKN050=

USA.gov is the U.S. government's official web portal to all federal, state and local government web resources and services.